Marienville, Pennsylvania
Current Conditions -  °F | °C
As of 2:53 AM on Friday 31 Oct 2014 (Local Time) from KDUJ Reporting Station
Overcast Overcast  
Wind Chill: 40°   Ceiling: 4500
Heat Index: 40°   Visibility: 10mi
Dew Point: 37°   Wind: 3mph
Humidity: 89%   Direction: 120°ESE
Pressure: 29.97"   Gusts: NA
Location:  41.47°N, 79.12°W
Report Text: KDUJ 310653Z AUTO 12003KT 10SM OVC045 04/03 A2997 RMK AO2 SLP159 T00440028
Loading
Personal Weather Stations






























Interactive Weather Map
Tropical Storm Tracking
New forecast layout! Learn more

10-Day Weather Forecast

Advertisements
Track Severe Weather on mobile